sensor_id;sensor_type;location;lat;lon;timestamp;P1;durP1;ratioP1;P2;durP2;ratioP2
15573;SDS011;7888;46.748;8.102;2023-09-07T05:02:57;4.82;;;2.90;;
15573;SDS011;7888;46.748;8.102;2023-09-07T05:05:23;4.80;;;3.10;;
15573;SDS011;7888;46.748;8.102;2023-09-07T05:07:48;3.92;;;3.00;;
15573;SDS011;7888;46.748;8.102;2023-09-07T05:10:14;3.47;;;2.85;;
15573;SDS011;7888;46.748;8.102;2023-09-07T05:12:41;4.47;;;3.45;;
15573;SDS011;7888;46.748;8.102;2023-09-07T05:15:07;3.72;;;3.20;;
15573;SDS011;7888;46.748;8.102;2023-09-07T05:17:33;3.20;;;3.00;;
15573;SDS011;7888;46.748;8.102;2023-09-07T05:19:59;3.70;;;3.25;;
15573;SDS011;7888;46.748;8.102;2023-09-07T05:22:24;3.58;;;3.28;;
15573;SDS011;7888;46.748;8.102;2023-09-07T05:24:51;3.25;;;3.05;;
15573;SDS011;7888;46.748;8.102;2023-09-07T05:27:17;3.65;;;3.33;;
15573;SDS011;7888;46.748;8.102;2023-09-07T05:29:42;3.65;;;3.30;;
15573;SDS011;7888;46.748;8.102;2023-09-07T05:32:09;3.33;;;3.10;;
15573;SDS011;7888;46.748;8.102;2023-09-07T05:34:35;4.78;;;2.95;;
15573;SDS011;7888;46.748;8.102;2023-09-07T05:37:01;3.83;;;3.53;;
15573;SDS011;7888;46.748;8.102;2023-09-07T05:39:26;3.30;;;2.97;;
15573;SDS011;7888;46.748;8.102;2023-09-07T05:41:52;3.78;;;3.30;;
15573;SDS011;7888;46.748;8.102;2023-09-07T05:44:18;2.90;;;2.70;;
15573;SDS011;7888;46.748;8.102;2023-09-07T05:46:43;4.13;;;3.38;;
15573;SDS011;7888;46.748;8.102;2023-09-07T05:49:09;3.30;;;3.00;;
15573;SDS011;7888;46.748;8.102;2023-09-07T05:51:35;3.20;;;2.90;;
15573;SDS011;7888;46.748;8.102;2023-09-07T05:54:01;3.30;;;3.00;;
15573;SDS011;7888;46.748;8.102;2023-09-07T05:56:26;3.15;;;2.90;;
15573;SDS011;7888;46.748;8.102;2023-09-07T05:58:52;2.97;;;2.78;;
15573;SDS011;7888;46.748;8.102;2023-09-07T06:01:18;3.25;;;2.95;;
15573;SDS011;7888;46.748;8.102;2023-09-07T06:03:43;3.17;;;2.88;;
15573;SDS011;7888;46.748;8.102;2023-09-07T06:06:09;3.58;;;3.28;;
15573;SDS011;7888;46.748;8.102;2023-09-07T06:08:35;4.82;;;3.00;;
15573;SDS011;7888;46.748;8.102;2023-09-07T06:11:01;4.25;;;3.38;;
15573;SDS011;7888;46.748;8.102;2023-09-07T06:13:26;3.55;;;3.20;;
15573;SDS011;7888;46.748;8.102;2023-09-07T06:15:52;4.20;;;3.40;;
15573;SDS011;7888;46.748;8.102;2023-09-07T06:18:18;3.67;;;3.25;;
15573;SDS011;7888;46.748;8.102;2023-09-07T06:20:43;3.80;;;3.05;;
15573;SDS011;7888;46.748;8.102;2023-09-07T06:23:09;4.32;;;3.10;;
15573;SDS011;7888;46.748;8.102;2023-09-07T06:25:35;3.80;;;3.33;;
15573;SDS011;7888;46.748;8.102;2023-09-07T06:28:00;3.33;;;3.03;;
15573;SDS011;7888;46.748;8.102;2023-09-07T06:30:27;3.28;;;3.00;;
15573;SDS011;7888;46.748;8.102;2023-09-07T06:32:52;2.90;;;2.70;;
15573;SDS011;7888;46.748;8.102;2023-09-07T06:35:18;3.28;;;3.00;;
15573;SDS011;7888;46.748;8.102;2023-09-07T06:37:44;4.72;;;3.00;;
15573;SDS011;7888;46.748;8.102;2023-09-07T06:40:10;3.33;;;3.03;;
15573;SDS011;7888;46.748;8.102;2023-09-07T06:42:36;3.00;;;2.80;;
15573;SDS011;7888;46.748;8.102;2023-09-07T06:45:02;3.00;;;2.80;;
15573;SDS011;7888;46.748;8.102;2023-09-07T06:47:29;6.20;;;3.15;;
15573;SDS011;7888;46.748;8.102;2023-09-07T06:49:55;3.22;;;3.00;;
15573;SDS011;7888;46.748;8.102;2023-09-07T06:52:21;3.67;;;3.03;;
15573;SDS011;7888;46.748;8.102;2023-09-07T06:54:50;4.55;;;3.20;;
15573;SDS011;7888;46.748;8.102;2023-09-07T06:57:18;3.30;;;2.80;;
15573;SDS011;7888;46.748;8.102;2023-09-07T06:59:44;3.50;;;3.20;;
15573;SDS011;7888;46.748;8.102;2023-09-07T07:02:10;3.58;;;2.90;;
15573;SDS011;7888;46.748;8.102;2023-09-07T07:04:36;3.25;;;2.90;;
15573;SDS011;7888;46.748;8.102;2023-09-07T07:07:02;3.47;;;3.03;;
15573;SDS011;7888;46.748;8.102;2023-09-07T07:09:29;3.65;;;3.10;;
15573;SDS011;7888;46.748;8.102;2023-09-07T07:11:56;3.90;;;2.50;;
15573;SDS011;7888;46.748;8.102;2023-09-07T07:14:25;3.05;;;2.85;;
15573;SDS011;7888;46.748;8.102;2023-09-07T07:16:50;3.28;;;2.85;;
15573;SDS011;7888;46.748;8.102;2023-09-07T07:19:16;3.20;;;2.92;;
15573;SDS011;7888;46.748;8.102;2023-09-07T07:21:42;3.22;;;2.50;;
15573;SDS011;7888;46.748;8.102;2023-09-07T07:24:08;2.85;;;2.65;;
15573;SDS011;7888;46.748;8.102;2023-09-07T07:26:34;2.70;;;2.50;;
15573;SDS011;7888;46.748;8.102;2023-09-07T07:29:00;3.17;;;2.67;;
15573;SDS011;7888;46.748;8.102;2023-09-07T07:31:28;4.20;;;3.05;;
15573;SDS011;7888;46.748;8.102;2023-09-07T07:33:54;3.17;;;2.78;;
15573;SDS011;7888;46.748;8.102;2023-09-07T07:36:20;2.45;;;2.25;;
15573;SDS011;7888;46.748;8.102;2023-09-07T07:38:46;6.03;;;3.05;;
15573;SDS011;7888;46.748;8.102;2023-09-07T07:41:12;3.33;;;2.60;;
15573;SDS011;7888;46.748;8.102;2023-09-07T07:43:37;3.28;;;2.70;;
15573;SDS011;7888;46.748;8.102;2023-09-07T07:46:03;4.05;;;2.60;;
15573;SDS011;7888;46.748;8.102;2023-09-07T07:48:29;2.63;;;2.28;;
15573;SDS011;7888;46.748;8.102;2023-09-07T07:50:55;3.03;;;2.67;;
15573;SDS011;7888;46.748;8.102;2023-09-07T07:53:21;3.30;;;3.00;;
15573;SDS011;7888;46.748;8.102;2023-09-07T07:55:46;2.70;;;2.50;;
15573;SDS011;7888;46.748;8.102;2023-09-07T07:58:13;3.55;;;2.67;;
15573;SDS011;7888;46.748;8.102;2023-09-07T08:00:39;3.22;;;2.92;;
15573;SDS011;7888;46.748;8.102;2023-09-07T08:03:12;3.67;;;3.00;;
15573;SDS011;7888;46.748;8.102;2023-09-07T08:05:38;3.17;;;2.97;;
15573;SDS011;7888;46.748;8.102;2023-09-07T08:08:05;3.10;;;2.85;;
15573;SDS011;7888;46.748;8.102;2023-09-07T08:10:34;5.70;;;2.95;;
15573;SDS011;7888;46.748;8.102;2023-09-07T08:13:06;3.20;;;2.90;;
15573;SDS011;7888;46.748;8.102;2023-09-07T08:15:32;2.80;;;2.60;;
15573;SDS011;7888;46.748;8.102;2023-09-07T08:17:59;3.25;;;2.72;;
15573;SDS011;7888;46.748;8.102;2023-09-07T08:20:25;4.00;;;2.92;;
15573;SDS011;7888;46.748;8.102;2023-09-07T08:22:52;3.20;;;2.72;;
15573;SDS011;7888;46.748;8.102;2023-09-07T08:25:18;3.15;;;2.85;;
15573;SDS011;7888;46.748;8.102;2023-09-07T08:27:45;2.83;;;2.63;;
15573;SDS011;7888;46.748;8.102;2023-09-07T08:30:13;3.22;;;2.90;;
15573;SDS011;7888;46.748;8.102;2023-09-07T08:32:42;3.10;;;2.67;;
15573;SDS011;7888;46.748;8.102;2023-09-07T08:35:09;3.42;;;2.95;;
15573;SDS011;7888;46.748;8.102;2023-09-07T08:37:38;2.72;;;2.47;;
15573;SDS011;7888;46.748;8.102;2023-09-07T08:40:05;2.95;;;2.75;;
15573;SDS011;7888;46.748;8.102;2023-09-07T08:42:36;3.10;;;2.80;;
15573;SDS011;7888;46.748;8.102;2023-09-07T08:45:03;3.13;;;2.88;;
15573;SDS011;7888;46.748;8.102;2023-09-07T08:47:33;3.63;;;3.13;;
15573;SDS011;7888;46.748;8.102;2023-09-07T08:50:02;3.47;;;2.97;;
15573;SDS011;7888;46.748;8.102;2023-09-07T08:52:31;5.72;;;3.63;;
15573;SDS011;7888;46.748;8.102;2023-09-07T08:54:59;3.08;;;2.78;;
15573;SDS011;7888;46.748;8.102;2023-09-07T08:57:29;3.08;;;2.85;;
15573;SDS011;7888;46.748;8.102;2023-09-07T08:59:56;2.85;;;2.65;;
15573;SDS011;7888;46.748;8.102;2023-09-07T09:02:22;3.83;;;2.97;;
15573;SDS011;7888;46.748;8.102;2023-09-07T09:04:48;3.05;;;2.85;;
15573;SDS011;7888;46.748;8.102;2023-09-07T09:07:14;3.40;;;3.10;;
15573;SDS011;7888;46.748;8.102;2023-09-07T09:09:40;3.33;;;3.03;;
15573;SDS011;7888;46.748;8.102;2023-09-07T09:12:06;3.45;;;2.80;;
15573;SDS011;7888;46.748;8.102;2023-09-07T09:14:37;4.40;;;2.70;;
15573;SDS011;7888;46.748;8.102;2023-09-07T09:17:04;2.97;;;2.67;;
15573;SDS011;7888;46.748;8.102;2023-09-07T09:19:33;3.05;;;2.75;;
15573;SDS011;7888;46.748;8.102;2023-09-07T09:21:59;3.25;;;2.60;;
15573;SDS011;7888;46.748;8.102;2023-09-07T09:24:31;2.90;;;2.70;;
15573;SDS011;7888;46.748;8.102;2023-09-07T09:26:59;3.05;;;2.35;;
15573;SDS011;7888;46.748;8.102;2023-09-07T09:29:25;2.63;;;2.42;;
15573;SDS011;7888;46.748;8.102;2023-09-07T09:31:52;2.95;;;2.50;;
15573;SDS011;7888;46.748;8.102;2023-09-07T09:34:18;2.60;;;2.40;;
15573;SDS011;7888;46.748;8.102;2023-09-07T09:36:45;3.30;;;2.72;;
15573;SDS011;7888;46.748;8.102;2023-09-07T09:39:20;2.95;;;2.63;;
15573;SDS011;7888;46.748;8.102;2023-09-07T09:41:48;2.70;;;2.40;;
15573;SDS011;7888;46.748;8.102;2023-09-07T09:44:15;3.40;;;3.10;;
15573;SDS011;7888;46.748;8.102;2023-09-07T09:46:42;3.00;;;2.70;;
15573;SDS011;7888;46.748;8.102;2023-09-07T09:49:08;3.50;;;2.65;;
15573;SDS011;7888;46.748;8.102;2023-09-07T09:51:36;2.90;;;2.55;;
15573;SDS011;7888;46.748;8.102;2023-09-07T09:54:04;2.92;;;2.72;;
15573;SDS011;7888;46.748;8.102;2023-09-07T09:56:31;3.28;;;3.08;;
15573;SDS011;7888;46.748;8.102;2023-09-07T09:58:57;6.30;;;3.30;;
15573;SDS011;7888;46.748;8.102;2023-09-07T10:01:23;3.25;;;3.00;;
15573;SDS011;7888;46.748;8.102;2023-09-07T10:03:49;2.92;;;2.72;;
15573;SDS011;7888;46.748;8.102;2023-09-07T10:06:20;2.90;;;2.70;;
15573;SDS011;7888;46.748;8.102;2023-09-07T10:08:58;2.97;;;2.78;;
15573;SDS011;7888;46.748;8.102;2023-09-07T10:11:31;3.30;;;3.00;;
15573;SDS011;7888;46.748;8.102;2023-09-07T10:14:00;2.90;;;2.70;;
15573;SDS011;7888;46.748;8.102;2023-09-07T10:19:20;4.65;;;3.10;;
15573;SDS011;7888;46.748;8.102;2023-09-07T10:21:48;2.88;;;2.55;;
15573;SDS011;7888;46.748;8.102;2023-09-07T10:26:56;3.40;;;3.10;;
15573;SDS011;7888;46.748;8.102;2023-09-07T10:29:50;2.90;;;2.70;;
15573;SDS011;7888;46.748;8.102;2023-09-07T10:32:19;3.33;;;3.13;;
15573;SDS011;7888;46.748;8.102;2023-09-07T10:34:45;3.30;;;3.10;;
15573;SDS011;7888;46.748;8.102;2023-09-07T10:37:11;4.15;;;3.35;;
15573;SDS011;7888;46.748;8.102;2023-09-07T10:39:39;4.32;;;3.13;;
15573;SDS011;7888;46.748;8.102;2023-09-07T10:42:22;3.17;;;2.88;;
15573;SDS011;7888;46.748;8.102;2023-09-07T10:44:49;2.90;;;2.70;;
15573;SDS011;7888;46.748;8.102;2023-09-07T10:47:16;3.38;;;3.17;;
15573;SDS011;7888;46.748;8.102;2023-09-07T10:49:41;3.17;;;2.97;;
15573;SDS011;7888;46.748;8.102;2023-09-07T10:52:07;3.00;;;2.80;;
15573;SDS011;7888;46.748;8.102;2023-09-07T10:54:33;2.88;;;2.67;;
15573;SDS011;7888;46.748;8.102;2023-09-07T10:57:07;3.28;;;2.97;;
15573;SDS011;7888;46.748;8.102;2023-09-07T10:59:45;3.25;;;2.75;;
15573;SDS011;7888;46.748;8.102;2023-09-07T11:02:11;2.88;;;2.67;;
15573;SDS011;7888;46.748;8.102;2023-09-07T11:04:36;3.30;;;3.10;;
15573;SDS011;7888;46.748;8.102;2023-09-07T11:07:02;3.30;;;3.05;;
15573;SDS011;7888;46.748;8.102;2023-09-07T11:09:29;3.40;;;3.17;;
15573;SDS011;7888;46.748;8.102;2023-09-07T11:11:56;3.10;;;2.90;;
15573;SDS011;7888;46.748;8.102;2023-09-07T11:14:31;3.42;;;3.13;;
15573;SDS011;7888;46.748;8.102;2023-09-07T11:16:56;3.35;;;3.08;;
15573;SDS011;7888;46.748;8.102;2023-09-07T11:19:22;3.30;;;3.08;;
15573;SDS011;7888;46.748;8.102;2023-09-07T11:21:48;3.50;;;3.20;;
15573;SDS011;7888;46.748;8.102;2023-09-07T11:24:16;3.20;;;3.00;;
15573;SDS011;7888;46.748;8.102;2023-09-07T11:26:45;4.40;;;3.47;;
15573;SDS011;7888;46.748;8.102;2023-09-07T11:29:16;3.88;;;3.47;;
15573;SDS011;7888;46.748;8.102;2023-09-07T11:31:44;3.17;;;2.97;;
15573;SDS011;7888;46.748;8.102;2023-09-07T11:34:10;3.70;;;3.17;;
15573;SDS011;7888;46.748;8.102;2023-09-07T11:36:39;3.30;;;3.10;;
15573;SDS011;7888;46.748;8.102;2023-09-07T11:39:11;3.05;;;2.83;;
15573;SDS011;7888;46.748;8.102;2023-09-07T11:41:43;3.65;;;3.35;;
15573;SDS011;7888;46.748;8.102;2023-09-07T11:44:09;3.38;;;3.10;;
15573;SDS011;7888;46.748;8.102;2023-09-07T11:46:36;4.05;;;3.30;;
15573;SDS011;7888;46.748;8.102;2023-09-07T11:49:02;3.60;;;3.22;;
15573;SDS011;7888;46.748;8.102;2023-09-07T11:51:29;4.13;;;3.40;;
15573;SDS011;7888;46.748;8.102;2023-09-07T11:53:56;3.40;;;3.10;;
15573;SDS011;7888;46.748;8.102;2023-09-07T11:56:21;4.03;;;3.35;;
15573;SDS011;7888;46.748;8.102;2023-09-07T11:58:47;3.80;;;3.50;;
15573;SDS011;7888;46.748;8.102;2023-09-07T12:01:13;3.50;;;3.20;;
15573;SDS011;7888;46.748;8.102;2023-09-07T12:03:41;3.33;;;3.03;;
15573;SDS011;7888;46.748;8.102;2023-09-07T12:06:08;3.47;;;3.17;;
15573;SDS011;7888;46.748;8.102;2023-09-07T12:08:34;3.88;;;3.22;;
15573;SDS011;7888;46.748;8.102;2023-09-07T12:11:01;4.43;;;3.60;;
15573;SDS011;7888;46.748;8.102;2023-09-07T12:13:27;3.45;;;2.92;;
15573;SDS011;7888;46.748;8.102;2023-09-07T12:15:52;3.58;;;3.35;;
15573;SDS011;7888;46.748;8.102;2023-09-07T12:18:18;3.90;;;3.50;;
15573;SDS011;7888;46.748;8.102;2023-09-07T12:20:44;3.60;;;3.30;;
15573;SDS011;7888;46.748;8.102;2023-09-07T12:23:10;3.92;;;3.22;;
15573;SDS011;7888;46.748;8.102;2023-09-07T12:25:35;3.80;;;3.47;;
15573;SDS011;7888;46.748;8.102;2023-09-07T12:28:02;3.95;;;3.65;;
15573;SDS011;7888;46.748;8.102;2023-09-07T12:30:28;5.00;;;3.40;;
15573;SDS011;7888;46.748;8.102;2023-09-07T12:32:54;3.42;;;3.15;;
15573;SDS011;7888;46.748;8.102;2023-09-07T12:35:19;3.45;;;3.25;;
15573;SDS011;7888;46.748;8.102;2023-09-07T12:37:46;3.47;;;3.17;;
15573;SDS011;7888;46.748;8.102;2023-09-07T12:40:12;3.45;;;3.25;;
15573;SDS011;7888;46.748;8.102;2023-09-07T12:42:38;3.55;;;3.35;;
15573;SDS011;7888;46.748;8.102;2023-09-07T12:45:06;3.63;;;3.22;;
15573;SDS011;7888;46.748;8.102;2023-09-07T12:47:34;3.97;;;3.67;;
15573;SDS011;7888;46.748;8.102;2023-09-07T12:50:00;4.70;;;3.65;;
15573;SDS011;7888;46.748;8.102;2023-09-07T12:52:26;3.85;;;3.55;;
15573;SDS011;7888;46.748;8.102;2023-09-07T12:54:51;3.25;;;3.05;;
15573;SDS011;7888;46.748;8.102;2023-09-07T12:57:17;3.63;;;3.25;;
15573;SDS011;7888;46.748;8.102;2023-09-07T12:59:43;3.67;;;3.25;;
15573;SDS011;7888;46.748;8.102;2023-09-07T13:02:09;6.28;;;3.45;;
15573;SDS011;7888;46.748;8.102;2023-09-07T13:04:34;3.95;;;3.65;;
15573;SDS011;7888;46.748;8.102;2023-09-07T13:07:00;3.50;;;3.30;;
15573;SDS011;7888;46.748;8.102;2023-09-07T13:09:27;3.22;;;3.03;;
15573;SDS011;7888;46.748;8.102;2023-09-07T13:11:52;4.40;;;3.38;;
15573;SDS011;7888;46.748;8.102;2023-09-07T13:14:18;3.60;;;3.30;;
15573;SDS011;7888;46.748;8.102;2023-09-07T13:16:44;3.20;;;3.00;;
15573;SDS011;7888;46.748;8.102;2023-09-07T13:19:10;4.00;;;3.63;;
15573;SDS011;7888;46.748;8.102;2023-09-07T13:21:36;3.55;;;3.28;;
15573;SDS011;7888;46.748;8.102;2023-09-07T13:24:02;3.50;;;3.22;;
15573;SDS011;7888;46.748;8.102;2023-09-07T13:26:29;3.28;;;2.97;;
15573;SDS011;7888;46.748;8.102;2023-09-07T13:28:55;3.35;;;3.15;;
15573;SDS011;7888;46.748;8.102;2023-09-07T13:31:21;4.15;;;3.50;;
15573;SDS011;7888;46.748;8.102;2023-09-07T13:33:46;3.60;;;3.30;;
15573;SDS011;7888;46.748;8.102;2023-09-07T13:36:12;3.53;;;3.22;;
15573;SDS011;7888;46.748;8.102;2023-09-07T13:38:38;3.80;;;3.50;;
15573;SDS011;7888;46.748;8.102;2023-09-07T13:41:03;3.83;;;3.20;;
15573;SDS011;7888;46.748;8.102;2023-09-07T13:43:29;3.53;;;3.22;;
15573;SDS011;7888;46.748;8.102;2023-09-07T13:45:55;4.32;;;3.28;;
15573;SDS011;7888;46.748;8.102;2023-09-07T13:48:20;3.53;;;3.20;;
15573;SDS011;7888;46.748;8.102;2023-09-07T13:50:46;3.20;;;3.00;;
15573;SDS011;7888;46.748;8.102;2023-09-07T13:53:12;3.63;;;3.30;;
15573;SDS011;7888;46.748;8.102;2023-09-07T13:55:38;3.53;;;3.22;;
15573;SDS011;7888;46.748;8.102;2023-09-07T13:58:05;3.45;;;3.20;;
15573;SDS011;7888;46.748;8.102;2023-09-07T14:00:31;3.80;;;3.47;;
15573;SDS011;7888;46.748;8.102;2023-09-07T14:02:57;4.13;;;3.17;;
15573;SDS011;7888;46.748;8.102;2023-09-07T14:05:22;3.45;;;3.25;;
15573;SDS011;7888;46.748;8.102;2023-09-07T14:07:48;3.85;;;3.55;;
15573;SDS011;7888;46.748;8.102;2023-09-07T14:10:14;3.28;;;3.08;;
15573;SDS011;7888;46.748;8.102;2023-09-07T14:12:40;3.45;;;3.08;;
15573;SDS011;7888;46.748;8.102;2023-09-07T14:15:08;3.40;;;3.10;;
15573;SDS011;7888;46.748;8.102;2023-09-07T14:17:34;3.45;;;3.15;;
15573;SDS011;7888;46.748;8.102;2023-09-07T14:19:59;3.25;;;3.00;;
15573;SDS011;7888;46.748;8.102;2023-09-07T14:22:25;3.30;;;3.10;;
15573;SDS011;7888;46.748;8.102;2023-09-07T14:24:51;3.30;;;3.10;;
15573;SDS011;7888;46.748;8.102;2023-09-07T14:27:17;3.30;;;2.97;;
15573;SDS011;7888;46.748;8.102;2023-09-07T14:29:42;3.47;;;3.17;;
15573;SDS011;7888;46.748;8.102;2023-09-07T14:32:08;3.22;;;3.03;;
15573;SDS011;7888;46.748;8.102;2023-09-07T14:34:34;3.53;;;3.22;;
15573;SDS011;7888;46.748;8.102;2023-09-07T14:37:01;3.10;;;2.90;;
15573;SDS011;7888;46.748;8.102;2023-09-07T14:39:27;3.30;;;3.10;;
15573;SDS011;7888;46.748;8.102;2023-09-07T14:41:52;3.50;;;3.20;;
15573;SDS011;7888;46.748;8.102;2023-09-07T14:44:19;3.53;;;3.15;;
15573;SDS011;7888;46.748;8.102;2023-09-07T14:46:45;3.85;;;2.78;;
15573;SDS011;7888;46.748;8.102;2023-09-07T14:49:14;3.70;;;3.40;;
15573;SDS011;7888;46.748;8.102;2023-09-07T14:51:42;3.30;;;3.00;;
15573;SDS011;7888;46.748;8.102;2023-09-07T14:54:10;3.40;;;3.10;;
15573;SDS011;7888;46.748;8.102;2023-09-07T14:56:35;2.97;;;2.78;;
15573;SDS011;7888;46.748;8.102;2023-09-07T14:59:02;3.05;;;2.85;;
15573;SDS011;7888;46.748;8.102;2023-09-07T15:01:27;3.33;;;3.03;;
15573;SDS011;7888;46.748;8.102;2023-09-07T15:03:53;3.35;;;3.05;;
15573;SDS011;7888;46.748;8.102;2023-09-07T15:06:19;3.20;;;2.90;;
15573;SDS011;7888;46.748;8.102;2023-09-07T15:08:45;3.08;;;2.88;;
15573;SDS011;7888;46.748;8.102;2023-09-07T15:11:10;3.20;;;3.00;;
15573;SDS011;7888;46.748;8.102;2023-09-07T15:13:39;3.78;;;3.47;;
15573;SDS011;7888;46.748;8.102;2023-09-07T15:16:04;3.15;;;2.95;;
15573;SDS011;7888;46.748;8.102;2023-09-07T15:18:33;3.13;;;2.88;;
15573;SDS011;7888;46.748;8.102;2023-09-07T15:20:59;3.50;;;3.13;;
15573;SDS011;7888;46.748;8.102;2023-09-07T15:23:25;3.15;;;2.95;;
15573;SDS011;7888;46.748;8.102;2023-09-07T15:25:51;4.10;;;3.13;;
15573;SDS011;7888;46.748;8.102;2023-09-07T15:28:18;3.13;;;2.85;;
15573;SDS011;7888;46.748;8.102;2023-09-07T15:30:44;3.60;;;3.30;;
15573;SDS011;7888;46.748;8.102;2023-09-07T15:33:10;3.40;;;3.10;;
15573;SDS011;7888;46.748;8.102;2023-09-07T15:35:35;3.50;;;3.20;;
15573;SDS011;7888;46.748;8.102;2023-09-07T15:38:01;3.60;;;3.40;;
15573;SDS011;7888;46.748;8.102;2023-09-07T15:40:27;4.55;;;3.33;;
15573;SDS011;7888;46.748;8.102;2023-09-07T15:42:53;3.55;;;3.22;;
15573;SDS011;7888;46.748;8.102;2023-09-07T15:45:19;5.47;;;3.63;;
15573;SDS011;7888;46.748;8.102;2023-09-07T15:47:45;3.75;;;3.45;;
15573;SDS011;7888;46.748;8.102;2023-09-07T15:50:12;3.72;;;3.42;;
15573;SDS011;7888;46.748;8.102;2023-09-07T15:52:47;4.30;;;3.90;;
15573;SDS011;7888;46.748;8.102;2023-09-07T15:55:14;4.07;;;3.42;;
15573;SDS011;7888;46.748;8.102;2023-09-07T15:57:43;3.67;;;3.38;;
15573;SDS011;7888;46.748;8.102;2023-09-07T16:00:09;3.05;;;2.85;;
15573;SDS011;7888;46.748;8.102;2023-09-07T16:02:35;3.17;;;2.88;;
15573;SDS011;7888;46.748;8.102;2023-09-07T16:05:02;3.50;;;3.30;;
15573;SDS011;7888;46.748;8.102;2023-09-07T16:07:28;4.28;;;3.35;;
15573;SDS011;7888;46.748;8.102;2023-09-07T16:09:54;4.50;;;3.47;;
15573;SDS011;7888;46.748;8.102;2023-09-07T16:12:20;3.47;;;3.17;;
15573;SDS011;7888;46.748;8.102;2023-09-07T16:14:46;4.70;;;3.25;;
15573;SDS011;7888;46.748;8.102;2023-09-07T16:17:12;5.63;;;3.00;;
15573;SDS011;7888;46.748;8.102;2023-09-07T16:19:37;3.63;;;3.30;;
15573;SDS011;7888;46.748;8.102;2023-09-07T16:22:03;3.53;;;3.22;;
15573;SDS011;7888;46.748;8.102;2023-09-07T16:24:31;3.53;;;3.22;;
15573;SDS011;7888;46.748;8.102;2023-09-07T16:26:57;4.15;;;3.35;;
15573;SDS011;7888;46.748;8.102;2023-09-07T16:29:23;3.28;;;3.00;;
15573;SDS011;7888;46.748;8.102;2023-09-07T16:31:49;3.42;;;3.10;;
15573;SDS011;7888;46.748;8.102;2023-09-07T16:34:14;3.90;;;3.50;;
15573;SDS011;7888;46.748;8.102;2023-09-07T16:36:40;4.05;;;3.42;;
15573;SDS011;7888;46.748;8.102;2023-09-07T16:39:06;4.18;;;3.78;;
15573;SDS011;7888;46.748;8.102;2023-09-07T16:41:32;4.30;;;3.50;;
15573;SDS011;7888;46.748;8.102;2023-09-07T16:43:58;3.95;;;3.65;;
15573;SDS011;7888;46.748;8.102;2023-09-07T16:46:23;4.00;;;3.70;;
15573;SDS011;7888;46.748;8.102;2023-09-07T16:48:50;3.67;;;3.38;;
15573;SDS011;7888;46.748;8.102;2023-09-07T16:51:15;4.22;;;3.83;;
15573;SDS011;7888;46.748;8.102;2023-09-07T16:53:41;4.38;;;3.65;;
15573;SDS011;7888;46.748;8.102;2023-09-07T16:56:07;4.05;;;3.75;;
15573;SDS011;7888;46.748;8.102;2023-09-07T16:58:32;4.40;;;3.83;;
15573;SDS011;7888;46.748;8.102;2023-09-07T17:01:03;3.88;;;3.58;;
15573;SDS011;7888;46.748;8.102;2023-09-07T17:03:30;4.10;;;3.80;;
15573;SDS011;7888;46.748;8.102;2023-09-07T17:05:56;4.78;;;4.28;;
15573;SDS011;7888;46.748;8.102;2023-09-07T17:08:21;4.13;;;3.83;;
15573;SDS011;7888;46.748;8.102;2023-09-07T17:10:47;4.57;;;4.15;;
15573;SDS011;7888;46.748;8.102;2023-09-07T17:13:13;5.85;;;4.10;;
15573;SDS011;7888;46.748;8.102;2023-09-07T17:15:38;4.50;;;4.10;;
15573;SDS011;7888;46.748;8.102;2023-09-07T17:18:04;4.22;;;3.72;;
15573;SDS011;7888;46.748;8.102;2023-09-07T17:20:30;9.60;;;8.70;;
15573;SDS011;7888;46.748;8.102;2023-09-07T17:23:01;6.60;;;6.10;;
15573;SDS011;7888;46.748;8.102;2023-09-07T17:25:27;5.28;;;4.88;;
15573;SDS011;7888;46.748;8.102;2023-09-07T17:27:57;5.22;;;4.72;;
15573;SDS011;7888;46.748;8.102;2023-09-07T17:30:23;4.80;;;4.30;;
15573;SDS011;7888;46.748;8.102;2023-09-07T17:32:49;5.28;;;4.50;;
15573;SDS011;7888;46.748;8.102;2023-09-07T17:35:15;4.60;;;4.20;;
15573;SDS011;7888;46.748;8.102;2023-09-07T17:37:41;5.10;;;4.07;;
15573;SDS011;7888;46.748;8.102;2023-09-07T17:40:07;4.93;;;4.53;;
15573;SDS011;7888;46.748;8.102;2023-09-07T17:42:35;5.10;;;4.32;;
15573;SDS011;7888;46.748;8.102;2023-09-07T17:45:01;4.47;;;4.18;;
15573;SDS011;7888;46.748;8.102;2023-09-07T17:47:27;4.90;;;4.43;;
15573;SDS011;7888;46.748;8.102;2023-09-07T17:49:53;4.70;;;4.00;;
15573;SDS011;7888;46.748;8.102;2023-09-07T17:52:18;4.90;;;3.90;;
15573;SDS011;7888;46.748;8.102;2023-09-07T17:54:44;5.80;;;4.32;;
15573;SDS011;7888;46.748;8.102;2023-09-07T17:57:10;4.45;;;4.05;;
15573;SDS011;7888;46.748;8.102;2023-09-07T17:59:35;5.97;;;3.95;;
15573;SDS011;7888;46.748;8.102;2023-09-07T18:02:01;4.32;;;3.95;;
15573;SDS011;7888;46.748;8.102;2023-09-07T18:04:27;4.32;;;4.03;;
15573;SDS011;7888;46.748;8.102;2023-09-07T18:06:53;5.15;;;4.28;;
15573;SDS011;7888;46.748;8.102;2023-09-07T18:09:19;4.25;;;3.95;;
15573;SDS011;7888;46.748;8.102;2023-09-07T18:11:44;5.75;;;4.35;;
15573;SDS011;7888;46.748;8.102;2023-09-07T18:14:11;4.30;;;3.92;;
15573;SDS011;7888;46.748;8.102;2023-09-07T18:16:39;4.32;;;3.97;;
15573;SDS011;7888;46.748;8.102;2023-09-07T18:19:06;4.22;;;3.92;;
15573;SDS011;7888;46.748;8.102;2023-09-07T18:21:32;4.32;;;3.78;;
15573;SDS011;7888;46.748;8.102;2023-09-07T18:23:58;4.30;;;4.00;;
15573;SDS011;7888;46.748;8.102;2023-09-07T18:26:24;4.15;;;3.83;;
15573;SDS011;7888;46.748;8.102;2023-09-07T18:28:49;4.03;;;3.72;;
15573;SDS011;7888;46.748;8.102;2023-09-07T18:31:15;4.70;;;4.35;;
15573;SDS011;7888;46.748;8.102;2023-09-07T18:33:41;5.93;;;3.90;;
15573;SDS011;7888;46.748;8.102;2023-09-07T18:36:06;4.50;;;3.95;;
15573;SDS011;7888;46.748;8.102;2023-09-07T18:38:33;4.72;;;4.30;;
15573;SDS011;7888;46.748;8.102;2023-09-07T18:41:00;4.10;;;3.80;;
15573;SDS011;7888;46.748;8.102;2023-09-07T18:43:27;4.18;;;3.78;;
15573;SDS011;7888;46.748;8.102;2023-09-07T18:45:54;4.45;;;4.00;;
15573;SDS011;7888;46.748;8.102;2023-09-07T18:48:21;4.13;;;3.83;;
15573;SDS011;7888;46.748;8.102;2023-09-07T18:50:47;4.78;;;3.88;;
15573;SDS011;7888;46.748;8.102;2023-09-07T18:53:13;3.88;;;3.58;;
15573;SDS011;7888;46.748;8.102;2023-09-07T18:55:39;4.10;;;3.75;;
15573;SDS011;7888;46.748;8.102;2023-09-07T18:58:06;4.28;;;3.88;;
15573;SDS011;7888;46.748;8.102;2023-09-07T19:00:33;3.97;;;3.67;;
15573;SDS011;7888;46.748;8.102;2023-09-07T19:03:00;4.10;;;3.80;;
15573;SDS011;7888;46.748;8.102;2023-09-07T19:05:27;4.45;;;4.10;;
15573;SDS011;7888;46.748;8.102;2023-09-07T19:07:53;4.63;;;4.15;;
15573;SDS011;7888;46.748;8.102;2023-09-07T19:10:19;4.07;;;3.67;;
15573;SDS011;7888;46.748;8.102;2023-09-07T19:12:45;5.03;;;3.97;;
15573;SDS011;7888;46.748;8.102;2023-09-07T19:15:10;4.03;;;3.72;;
15573;SDS011;7888;46.748;8.102;2023-09-07T19:17:36;4.20;;;3.90;;
15573;SDS011;7888;46.748;8.102;2023-09-07T19:20:02;4.03;;;3.65;;
15573;SDS011;7888;46.748;8.102;2023-09-07T19:22:28;4.25;;;3.78;;
15573;SDS011;7888;46.748;8.102;2023-09-07T19:24:55;4.05;;;3.65;;
15573;SDS011;7888;46.748;8.102;2023-09-07T19:27:21;3.83;;;3.53;;
15573;SDS011;7888;46.748;8.102;2023-09-07T19:29:47;3.92;;;3.63;;
15573;SDS011;7888;46.748;8.102;2023-09-07T19:32:13;4.57;;;4.18;;
15573;SDS011;7888;46.748;8.102;2023-09-07T19:34:40;4.25;;;3.90;;
15573;SDS011;7888;46.748;8.102;2023-09-07T19:37:06;4.10;;;3.80;;
15573;SDS011;7888;46.748;8.102;2023-09-07T19:39:32;3.92;;;3.63;;
15573;SDS011;7888;46.748;8.102;2023-09-07T19:41:58;5.32;;;3.88;;
15573;SDS011;7888;46.748;8.102;2023-09-07T19:44:24;4.03;;;3.72;;
15573;SDS011;7888;46.748;8.102;2023-09-07T19:46:50;4.13;;;3.83;;
15573;SDS011;7888;46.748;8.102;2023-09-07T19:49:16;4.75;;;4.35;;
15573;SDS011;7888;46.748;8.102;2023-09-07T19:51:42;4.60;;;4.20;;
15573;SDS011;7888;46.748;8.102;2023-09-07T19:54:08;4.32;;;3.95;;
15573;SDS011;7888;46.748;8.102;2023-09-07T19:56:34;4.43;;;4.03;;
15573;SDS011;7888;46.748;8.102;2023-09-07T19:59:00;4.28;;;3.88;;
15573;SDS011;7888;46.748;8.102;2023-09-07T20:01:25;4.50;;;4.10;;
15573;SDS011;7888;46.748;8.102;2023-09-07T20:03:52;4.35;;;3.95;;